createdAt,value
2018-08-17T05:18:36.895Z,97516.76
2018-08-17T05:21:06.622Z,97520.93
2018-08-17T05:23:36.100Z,97518.96
2018-08-17T05:26:05.689Z,97518.47
2018-08-17T05:28:35.224Z,97511.00
2018-08-17T05:31:05.044Z,97510.44
2018-08-17T05:33:34.580Z,97514.71
2018-08-17T05:36:04.236Z,97513.25
2018-08-17T05:38:33.675Z,97512.78
2018-08-17T05:41:03.389Z,97511.25
2018-08-17T05:43:32.901Z,97504.92
2018-08-17T05:46:02.606Z,97504.12
2018-08-17T05:48:33.090Z,97507.58
2018-08-17T05:51:02.746Z,97505.64
2018-08-17T05:53:32.255Z,97503.50
2018-08-17T05:56:01.998Z,97501.80
2018-08-17T05:58:31.450Z,97502.77
2018-08-17T06:01:01.012Z,97505.92
2018-08-17T06:03:30.476Z,97507.10
2018-08-17T06:06:00.205Z,97501.50
2018-08-17T06:08:30.145Z,97492.36
2018-08-17T06:10:59.670Z,97496.69
2018-08-17T06:13:29.045Z,97496.11
2018-08-17T06:15:58.649Z,97494.81
2018-08-17T06:18:28.304Z,97493.84
2018-08-17T06:20:58.375Z,97494.89
2018-08-17T06:23:27.853Z,97491.73
2018-08-17T06:25:57.385Z,97493.53
2018-08-17T06:28:26.952Z,97498.10
2018-08-17T06:30:56.423Z,97503.47
2018-08-17T06:33:25.872Z,97509.03
2018-08-17T06:35:55.389Z,97509.92
2018-08-17T06:38:24.719Z,97513.41
2018-08-17T06:40:54.143Z,97512.33
2018-08-17T06:43:23.587Z,97511.16
2018-08-17T06:45:53.084Z,97511.70
2018-08-17T06:48:22.564Z,97507.23
2018-08-17T06:50:52.125Z,97506.32
2018-08-17T06:53:27.503Z,97501.07
2018-08-17T06:55:57.185Z,97501.59
2018-08-17T06:58:26.650Z,97502.42
2018-08-17T07:00:56.063Z,97499.84
2018-08-17T07:03:25.401Z,97504.68
2018-08-17T07:05:54.942Z,97504.69
2018-08-17T07:08:24.181Z,97500.86
2018-08-17T07:10:53.690Z,97506.17
2018-08-17T07:13:23.289Z,97500.51
2018-08-17T07:15:52.729Z,97504.81
2018-08-17T07:18:22.201Z,97507.47
2018-08-17T07:20:51.682Z,97492.06
2018-08-17T07:23:21.020Z,97495.71
2018-08-17T07:25:50.525Z,97496.96
2018-08-17T07:28:19.982Z,97498.34
2018-08-17T07:30:50.081Z,97494.01
2018-08-17T07:33:19.600Z,97493.70
2018-08-17T07:35:49.331Z,97495.66
2018-08-17T07:38:18.682Z,97495.14
2018-08-17T07:40:49.220Z,97496.62
2018-08-17T07:43:35.980Z,97501.43
2018-08-17T07:46:12.143Z,97499.91
2018-08-17T07:48:43.688Z,97495.73
2018-08-17T07:51:13.340Z,97496.17
2018-08-17T07:53:42.828Z,97499.52
2018-08-17T07:56:12.346Z,97495.83
2018-08-17T07:58:42.168Z,97498.82
2018-08-17T08:01:12.326Z,97506.27
2018-08-17T08:03:42.144Z,97497.12
2018-08-17T08:06:11.621Z,97498.19
2018-08-17T08:08:41.000Z,97505.09
2018-08-17T08:11:10.637Z,97495.22
2018-08-17T08:13:40.089Z,97501.66
2018-08-17T08:16:11.018Z,97496.38
2018-08-17T08:18:40.881Z,97499.91
2018-08-17T08:21:10.483Z,97499.62
2018-08-17T08:23:40.887Z,97499.56
2018-08-17T08:26:10.689Z,97491.62
2018-08-17T08:28:40.760Z,97493.97
2018-08-17T08:31:11.180Z,97490.36
2018-08-17T08:33:40.567Z,97483.47
2018-08-17T08:36:10.119Z,97488.11
2018-08-17T08:38:39.820Z,97482.58
2018-08-17T08:41:09.287Z,97483.53
2018-08-17T08:43:39.215Z,97477.19
2018-08-17T08:46:09.063Z,97469.73
2018-08-17T08:48:39.257Z,97476.05
2018-08-17T08:51:09.120Z,97470.66
2018-08-17T08:53:38.656Z,97466.88
2018-08-17T08:56:08.945Z,97462.02
2018-08-17T08:58:38.403Z,97461.09
2018-08-17T09:01:10.137Z,97455.23
2018-08-17T09:03:39.665Z,97464.43
2018-08-17T09:06:10.626Z,97454.00
2018-08-17T09:08:40.771Z,97452.78
2018-08-17T09:11:16.881Z,97451.61
2018-08-17T09:13:48.105Z,97449.02
2018-08-17T09:16:17.703Z,97449.05
2018-08-17T09:18:47.354Z,97448.92
2018-08-17T09:21:16.975Z,97446.91
2018-08-17T09:23:46.801Z,97447.47
2018-08-17T09:26:16.412Z,97445.13
2018-08-17T09:28:45.959Z,97441.20
2018-08-17T09:31:15.620Z,97448.31
2018-08-17T09:33:45.185Z,97441.04
2018-08-17T09:36:14.921Z,97448.90
2018-08-17T09:38:44.538Z,97448.34
2018-08-17T09:41:14.366Z,97445.23
2018-08-17T09:43:43.977Z,97440.39
2018-08-17T09:46:14.101Z,97435.75
2018-08-17T09:48:43.815Z,97431.78
2018-08-17T09:51:13.467Z,97427.11
2018-08-17T09:53:43.747Z,97435.38
2018-08-17T09:56:13.322Z,97432.37
2018-08-17T09:58:42.762Z,97432.33
2018-08-17T10:01:17.281Z,97430.80
2018-08-17T10:03:51.889Z,97432.37
2018-08-17T10:06:27.267Z,97422.75
2018-08-17T10:09:01.762Z,97416.31
2018-08-17T10:11:31.541Z,97416.14
2018-08-17T10:14:01.041Z,97415.93
2018-08-17T10:16:30.802Z,97419.06
2018-08-17T10:19:00.401Z,97416.61
2018-08-17T10:21:31.846Z,97409.17
2018-08-17T10:24:02.629Z,97409.15
2018-08-17T10:26:32.403Z,97404.53
2018-08-17T10:29:02.268Z,97409.48
2018-08-17T10:31:32.228Z,97412.90
2018-08-17T10:34:02.051Z,97403.77
2018-08-17T10:36:31.830Z,97410.34
2018-08-17T10:39:01.356Z,97409.33
2018-08-17T10:41:31.429Z,97411.48
2018-08-17T10:44:01.216Z,97408.72
2018-08-17T10:46:31.330Z,97408.50
2018-08-17T10:49:00.939Z,97401.60
2018-08-17T10:51:30.570Z,97396.53
2018-08-17T10:54:00.103Z,97400.93
2018-08-17T10:56:29.642Z,97403.25
2018-08-17T10:58:59.419Z,97397.73
2018-08-17T11:01:29.120Z,97402.97
2018-08-17T11:03:58.959Z,97393.98
2018-08-17T11:06:29.063Z,97391.42
2018-08-17T11:08:59.368Z,97393.61
2018-08-17T11:11:29.069Z,97387.23
2018-08-17T11:13:59.121Z,97391.00
2018-08-17T11:16:28.705Z,97393.57
2018-08-17T11:18:58.362Z,97377.05
2018-08-17T11:21:28.162Z,97384.72
2018-08-17T11:23:58.144Z,97382.31
2018-08-17T11:26:27.730Z,97384.16
2018-08-17T11:28:57.451Z,97383.20
2018-08-17T11:31:27.109Z,97380.81
2018-08-17T11:33:56.890Z,97379.30
2018-08-17T11:36:57.842Z,97368.67
2018-08-17T11:39:27.744Z,97370.17
2018-08-17T11:41:58.133Z,97368.92
2018-08-17T11:44:33.050Z,97371.45
2018-08-17T11:47:03.186Z,97367.17
2018-08-17T11:49:32.901Z,97377.10
2018-08-17T11:52:02.465Z,97369.35
2018-08-17T11:54:32.154Z,97372.08
2018-08-17T11:57:01.818Z,97370.13
2018-08-17T11:59:31.262Z,97369.03
2018-08-17T12:02:01.006Z,97371.13
2018-08-17T12:04:30.733Z,97370.42
2018-08-17T12:07:00.883Z,97367.62
2018-08-17T12:09:35.030Z,97364.99
2018-08-17T12:12:05.733Z,97363.00
2018-08-17T12:14:44.157Z,97367.03
2018-08-17T12:17:15.594Z,97362.13
2018-08-17T12:19:45.982Z,97355.55
2018-08-17T12:22:17.197Z,97352.84
2018-08-17T12:24:47.896Z,97351.61
2018-08-17T12:27:18.199Z,97356.41
2018-08-17T12:29:48.739Z,97345.99
2018-08-17T12:32:20.937Z,97344.39
2018-08-17T12:34:50.858Z,97346.11
2018-08-17T12:37:35.307Z,97343.64
2018-08-17T12:40:04.906Z,97347.02
2018-08-17T12:42:38.573Z,97344.02
2018-08-17T12:45:13.071Z,97337.32
2018-08-17T12:47:42.656Z,97347.92
2018-08-17T12:50:12.049Z,97343.07
2018-08-17T12:52:41.510Z,97341.19
2018-08-17T12:55:10.981Z,97335.45
2018-08-17T12:57:41.309Z,97337.73
2018-08-17T13:00:11.970Z,97332.77
2018-08-17T13:02:41.680Z,97327.30
2018-08-17T13:05:11.110Z,97332.52
2018-08-17T13:07:40.712Z,97329.41
2018-08-17T13:10:10.633Z,97328.17
2018-08-17T13:12:40.229Z,97318.97
2018-08-17T13:15:09.752Z,97324.94
2018-08-17T13:17:44.430Z,97324.02
2018-08-17T13:20:13.931Z,97318.20
2018-08-17T13:22:43.553Z,97314.30
2018-08-17T13:25:12.971Z,97323.59
2018-08-17T13:27:42.498Z,97320.45
2018-08-17T13:30:14.911Z,97322.47
2018-08-17T13:32:45.272Z,97315.63
2018-08-17T13:35:15.271Z,97319.23
2018-08-17T13:37:44.812Z,97315.12
2018-08-17T13:40:14.231Z,97316.27
2018-08-17T13:42:43.752Z,97318.16
2018-08-17T13:45:13.352Z,97310.61
2018-08-17T13:47:43.092Z,97316.45
2018-08-17T13:50:12.550Z,97310.81
2018-08-17T13:52:42.093Z,97308.92
2018-08-17T13:55:11.611Z,97311.96
2018-08-17T13:57:41.191Z,97314.91
2018-08-17T14:00:12.172Z,97317.92
2018-08-17T14:02:42.077Z,97322.98
2018-08-17T14:05:12.392Z,97319.67
2018-08-17T14:07:42.152Z,97317.05
2018-08-17T14:10:12.387Z,97318.93
2018-08-17T14:12:41.932Z,97323.32
2018-08-17T14:15:11.672Z,97316.09
2018-08-17T14:17:41.256Z,97318.85
2018-08-17T14:20:16.296Z,97317.23
2018-08-17T14:22:45.832Z,97315.80
2018-08-17T14:25:15.629Z,97317.78
2018-08-17T14:27:45.192Z,97317.91
2018-08-17T14:30:18.233Z,97312.00
2018-08-17T14:32:47.754Z,97311.47
2018-08-17T14:35:17.239Z,97308.83
2018-08-17T14:37:46.932Z,97312.78
2018-08-17T14:40:16.447Z,97309.59
2018-08-17T14:42:46.154Z,97310.57
2018-08-17T14:45:15.513Z,97302.50
2018-08-17T14:47:45.033Z,97304.52
2018-08-17T14:50:15.283Z,97308.17
2018-08-17T14:52:44.899Z,97298.01
2018-08-17T14:55:14.942Z,97296.16
2018-08-17T14:57:44.494Z,97295.41
2018-08-17T15:00:15.602Z,97296.16
2018-08-17T15:02:45.214Z,97292.34
2018-08-17T15:05:16.133Z,97292.55
2018-08-17T15:07:45.779Z,97295.59
2018-08-17T15:10:17.286Z,97293.61
2018-08-17T15:12:49.401Z,97290.42
2018-08-17T15:15:20.367Z,97286.81
2018-08-17T15:17:52.443Z,97290.70
2018-08-17T15:20:23.273Z,97286.48
2018-08-17T15:22:53.833Z,97293.50
2018-08-17T15:25:26.954Z,97285.99
2018-08-17T15:27:58.316Z,97286.34
2018-08-17T15:30:29.454Z,97287.23
2018-08-17T15:32:59.920Z,97283.09
2018-08-17T15:35:29.980Z,97286.20
2018-08-17T15:37:59.801Z,97288.22
2018-08-17T15:40:30.440Z,97278.52
2018-08-17T15:43:05.353Z,97282.22
2018-08-17T15:45:35.433Z,97286.38
2018-08-17T15:48:06.054Z,97284.05
2018-08-17T15:50:36.614Z,97282.09
2018-08-17T15:53:07.240Z,97279.03
2018-08-17T15:55:36.771Z,97277.47
2018-08-17T15:58:07.321Z,97275.88
2018-08-17T16:00:37.402Z,97276.05
2018-08-17T16:03:07.513Z,97272.67
2018-08-17T16:05:37.676Z,97276.48
2018-08-17T16:08:07.854Z,97277.36
2018-08-17T16:10:37.345Z,97268.35
2018-08-17T16:13:07.121Z,97274.63
2018-08-17T16:15:37.027Z,97276.86
2018-08-17T16:18:07.246Z,97275.08
2018-08-17T16:20:48.922Z,97277.67
2018-08-17T16:23:20.261Z,97274.89
2018-08-17T16:25:52.287Z,97276.20
2018-08-17T16:28:23.205Z,97278.98
2018-08-17T16:30:54.893Z,97285.84
2018-08-17T16:33:25.766Z,97282.42
2018-08-17T16:35:57.665Z,97285.15
2018-08-17T16:38:27.969Z,97282.23
2018-08-17T16:40:58.573Z,97279.95
2018-08-17T16:43:51.025Z,97287.55
2018-08-17T16:46:21.286Z,97283.56
2018-08-17T16:48:58.936Z,97290.06
2018-08-17T16:51:41.515Z,97294.76
2018-08-17T16:54:11.529Z,97298.30
2018-08-17T16:56:42.267Z,97303.87
2018-08-17T16:59:12.635Z,97309.80
2018-08-17T17:01:44.548Z,97305.06
2018-08-17T17:04:14.807Z,97307.11
2018-08-17T17:06:45.587Z,97319.50
2018-08-17T17:09:15.288Z,97318.50
2018-08-17T17:11:45.209Z,97327.27
2018-08-17T17:14:16.860Z,97329.66
2018-08-17T17:16:50.298Z,97330.85
2018-08-17T17:19:22.649Z,97339.11
2018-08-17T17:21:53.325Z,97339.49
2018-08-17T17:24:26.289Z,97342.39
2018-08-17T17:26:55.926Z,97346.76
2018-08-17T17:29:25.791Z,97348.05
2018-08-17T17:31:59.454Z,97345.56
2018-08-17T17:34:29.188Z,97352.70
2018-08-17T17:36:59.783Z,97356.95
2018-08-17T17:39:32.011Z,97361.28
2018-08-17T17:42:03.266Z,97363.50
2018-08-17T17:44:38.499Z,97363.73
2018-08-17T17:47:11.812Z,97365.83
2018-08-17T17:49:42.807Z,97374.94
2018-08-17T17:52:14.805Z,97378.64
2018-08-17T17:54:50.066Z,97380.46
2018-08-17T17:57:22.006Z,97388.50
2018-08-17T17:59:59.454Z,97393.64
2018-08-17T18:02:32.764Z,97401.08
2018-08-17T18:05:05.026Z,97402.86
2018-08-17T18:07:40.068Z,97408.80
2018-08-17T18:10:12.314Z,97418.73
2018-08-17T18:12:44.506Z,97419.08
2018-08-17T18:15:15.822Z,97415.28
2018-08-17T18:17:49.635Z,97417.41
2018-08-17T18:20:20.332Z,97417.86
2018-08-17T18:22:54.008Z,97419.95
2018-08-17T18:25:26.623Z,97433.58
2018-08-17T18:27:59.045Z,97430.02
2018-08-17T18:30:31.167Z,97435.30
2018-08-17T18:33:01.283Z,97442.90
2018-08-17T18:35:31.625Z,97446.06
2018-08-17T18:38:02.347Z,97455.48
2018-08-17T18:40:38.466Z,97450.39
2018-08-17T18:43:13.856Z,97461.28
2018-08-17T18:45:49.845Z,97466.81
2018-08-17T18:48:31.450Z,97471.73
2018-08-17T18:51:07.286Z,97472.98
2018-08-17T18:53:40.847Z,97469.09
2018-08-17T18:56:11.245Z,97473.80
2018-08-17T18:58:42.027Z,97481.75
2018-08-17T19:01:12.078Z,97473.66
2018-08-17T19:03:41.844Z,97474.21
2018-08-17T19:06:11.906Z,97476.88
2018-08-17T19:08:41.484Z,97478.94
2018-08-17T19:11:11.124Z,97482.72
2018-08-17T19:13:40.624Z,97482.09
2018-08-17T19:16:10.342Z,97488.91
2018-08-17T19:18:40.396Z,97492.06
2018-08-17T19:21:13.688Z,97493.44
2018-08-17T19:23:43.305Z,97491.91
2018-08-17T19:26:13.484Z,97490.66
2018-08-17T19:28:42.964Z,97494.23
2018-08-17T19:31:12.508Z,97486.05
2018-08-17T19:33:42.173Z,97490.04
2018-08-17T19:36:12.428Z,97498.64
2018-08-17T19:38:43.273Z,97502.53
2018-08-17T19:41:12.806Z,97509.64
2018-08-17T19:43:42.483Z,97500.82
2018-08-17T19:46:12.156Z,97506.13
2018-08-17T19:48:41.513Z,97498.11
2018-08-17T19:51:16.204Z,97508.36
2018-08-17T19:53:46.137Z,97513.50
2018-08-17T19:56:16.223Z,97509.11
2018-08-17T19:58:45.995Z,97510.08
2018-08-17T20:01:15.357Z,97511.28
2018-08-17T20:03:44.935Z,97514.88
2018-08-17T20:06:14.497Z,97521.66
2018-08-17T20:08:44.460Z,97529.59
2018-08-17T20:11:14.066Z,97534.95
2018-08-17T20:13:43.830Z,97533.22
2018-08-17T20:16:22.042Z,97533.00
2018-08-17T20:18:51.808Z,97535.37
2018-08-17T20:21:25.172Z,97535.09
2018-08-17T20:23:55.303Z,97538.52
2018-08-17T20:26:26.026Z,97540.48
2018-08-17T20:28:55.733Z,97541.02
2018-08-17T20:31:25.298Z,97539.20
2018-08-17T20:33:54.964Z,97538.74
2018-08-17T20:36:24.751Z,97541.30
2018-08-17T20:38:54.790Z,97543.52
2018-08-17T20:41:24.364Z,97541.30
2018-08-17T20:43:53.992Z,97546.51
2018-08-17T20:46:23.503Z,97542.94
2018-08-17T20:48:53.162Z,97540.19
2018-08-17T20:51:25.711Z,97542.95
2018-08-17T20:53:59.772Z,97545.42
2018-08-17T20:56:29.818Z,97542.14
2018-08-17T20:58:59.503Z,97538.09
2018-08-17T21:01:29.367Z,97534.73
2018-08-17T21:03:58.869Z,97534.73
2018-08-17T21:06:28.308Z,97538.72
2018-08-17T21:08:58.026Z,97540.69
2018-08-17T21:11:27.523Z,97539.34
2018-08-17T21:13:57.046Z,97544.08
2018-08-17T21:16:27.790Z,97548.20
2018-08-17T21:18:57.363Z,97540.46
2018-08-17T21:21:27.045Z,97546.36
2018-08-17T21:23:56.854Z,97549.33
2018-08-17T21:26:26.596Z,97547.31
2018-08-17T21:28:56.734Z,97545.44
2018-08-17T21:31:26.261Z,97551.28
2018-08-17T21:33:55.904Z,97555.16
2018-08-17T21:36:25.682Z,97550.16
2018-08-17T21:40:03.141Z,97549.45
2018-08-17T21:42:32.701Z,97554.23
2018-08-17T21:45:02.352Z,97548.34
2018-08-17T21:47:31.883Z,97549.97
2018-08-17T21:50:06.475Z,97551.55
2018-08-17T21:52:36.038Z,97550.91
2018-08-17T21:55:05.690Z,97550.10
2018-08-17T21:57:35.132Z,97556.13
2018-08-17T22:00:06.425Z,97562.45
2018-08-17T22:02:36.014Z,97562.66
2018-08-17T22:05:06.004Z,97570.42
2018-08-17T22:07:35.445Z,97566.59
2018-08-17T22:10:05.355Z,97570.23
2018-08-17T22:12:34.904Z,97568.73
2018-08-17T22:15:04.713Z,97573.48
2018-08-17T22:17:39.108Z,97571.02
2018-08-17T22:20:10.951Z,97582.03
2018-08-17T22:22:40.552Z,97586.56
2018-08-17T22:25:16.959Z,97581.05
2018-08-17T22:27:46.691Z,97586.15
2018-08-17T22:30:22.096Z,97592.35
2018-08-17T22:32:53.602Z,97592.48
2018-08-17T22:35:23.432Z,97595.03
2018-08-17T22:37:52.731Z,97593.09
2018-08-17T22:40:22.321Z,97601.53
2018-08-17T22:42:52.832Z,97597.73
2018-08-17T22:45:22.644Z,97601.35
2018-08-17T22:47:52.089Z,97602.54
2018-08-17T22:50:21.593Z,97599.42
2018-08-17T22:52:51.115Z,97604.69
2018-08-17T22:55:20.738Z,97607.92
2018-08-17T22:57:50.211Z,97606.48
2018-08-17T23:00:24.404Z,97606.86
2018-08-17T23:02:55.747Z,97608.54
2018-08-17T23:05:31.028Z,97611.62
2018-08-17T23:08:00.421Z,97608.90
2018-08-17T23:10:30.549Z,97607.13
2018-08-17T23:13:00.070Z,97605.47
2018-08-17T23:15:29.669Z,97600.20
2018-08-17T23:18:00.713Z,97604.12
2018-08-17T23:20:35.283Z,97606.02
2018-08-17T23:23:08.184Z,97599.23
2018-08-17T23:25:37.682Z,97599.47
2018-08-17T23:28:07.086Z,97604.97
2018-08-17T23:30:36.652Z,97601.25
2018-08-17T23:33:06.814Z,97598.03
2018-08-17T23:35:36.495Z,97601.27
2018-08-17T23:38:06.086Z,97600.69
2018-08-17T23:40:35.598Z,97603.20
2018-08-17T23:43:05.082Z,97604.28
2018-08-17T23:45:34.641Z,97601.28
2018-08-17T23:48:04.016Z,97603.94
2018-08-17T23:50:33.673Z,97596.74
2018-08-17T23:53:03.284Z,97598.07
2018-08-17T23:55:32.830Z,97601.31
2018-08-17T23:58:02.313Z,97602.84
